sensor_id;sensor_type;location;lat;lon;timestamp;temperature;humidity
51476;DHT22;37554;50.362;7.568;2023-12-14T00:01:13;12.70;65.40
51476;DHT22;37554;50.362;7.568;2023-12-14T00:03:42;12.70;65.50
51476;DHT22;37554;50.362;7.568;2023-12-14T00:06:12;12.70;65.50
51476;DHT22;37554;50.362;7.568;2023-12-14T00:08:39;12.70;65.50
51476;DHT22;37554;50.362;7.568;2023-12-14T00:11:10;12.70;65.50
51476;DHT22;37554;50.362;7.568;2023-12-14T00:13:36;12.70;65.60
51476;DHT22;37554;50.362;7.568;2023-12-14T00:16:03;12.70;65.60
51476;DHT22;37554;50.362;7.568;2023-12-14T00:18:29;12.70;65.60
51476;DHT22;37554;50.362;7.568;2023-12-14T00:20:54;12.70;65.70
51476;DHT22;37554;50.362;7.568;2023-12-14T00:23:21;12.70;66.40
51476;DHT22;37554;50.362;7.568;2023-12-14T00:25:46;12.70;65.80
51476;DHT22;37554;50.362;7.568;2023-12-14T00:28:12;12.70;65.80
51476;DHT22;37554;50.362;7.568;2023-12-14T00:30:38;12.60;65.80
51476;DHT22;37554;50.362;7.568;2023-12-14T00:33:03;12.60;65.80
51476;DHT22;37554;50.362;7.568;2023-12-14T00:35:29;12.60;65.80
51476;DHT22;37554;50.362;7.568;2023-12-14T00:37:55;12.70;65.90
51476;DHT22;37554;50.362;7.568;2023-12-14T00:40:20;12.70;65.90
51476;DHT22;37554;50.362;7.568;2023-12-14T00:42:49;12.70;66.00
51476;DHT22;37554;50.362;7.568;2023-12-14T00:45:23;12.70;66.00
51476;DHT22;37554;50.362;7.568;2023-12-14T00:47:49;12.70;66.00
51476;DHT22;37554;50.362;7.568;2023-12-14T00:50:14;12.60;66.00
51476;DHT22;37554;50.362;7.568;2023-12-14T00:52:40;12.70;66.10
51476;DHT22;37554;50.362;7.568;2023-12-14T00:55:06;12.70;66.10
51476;DHT22;37554;50.362;7.568;2023-12-14T00:57:31;12.60;66.10
51476;DHT22;37554;50.362;7.568;2023-12-14T00:59:57;12.70;66.20
51476;DHT22;37554;50.362;7.568;2023-12-14T01:02:23;12.60;66.10
51476;DHT22;37554;50.362;7.568;2023-12-14T01:04:48;12.60;66.20
51476;DHT22;37554;50.362;7.568;2023-12-14T01:07:14;12.60;66.20
51476;DHT22;37554;50.362;7.568;2023-12-14T01:09:39;12.60;66.20
51476;DHT22;37554;50.362;7.568;2023-12-14T01:12:05;12.60;66.20
51476;DHT22;37554;50.362;7.568;2023-12-14T01:14:30;12.60;66.20
51476;DHT22;37554;50.362;7.568;2023-12-14T01:16:56;12.60;66.20
51476;DHT22;37554;50.362;7.568;2023-12-14T01:19:22;12.60;66.30
51476;DHT22;37554;50.362;7.568;2023-12-14T01:21:47;12.60;66.30
51476;DHT22;37554;50.362;7.568;2023-12-14T01:24:13;12.60;66.30
51476;DHT22;37554;50.362;7.568;2023-12-14T01:26:39;12.60;66.30
51476;DHT22;37554;50.362;7.568;2023-12-14T01:29:05;12.60;66.30
51476;DHT22;37554;50.362;7.568;2023-12-14T01:31:31;12.60;66.30
51476;DHT22;37554;50.362;7.568;2023-12-14T01:33:56;12.60;66.30
51476;DHT22;37554;50.362;7.568;2023-12-14T01:36:23;12.60;66.40
51476;DHT22;37554;50.362;7.568;2023-12-14T01:38:49;12.60;66.40
51476;DHT22;37554;50.362;7.568;2023-12-14T01:41:15;12.60;66.40
51476;DHT22;37554;50.362;7.568;2023-12-14T01:43:40;12.60;66.40
51476;DHT22;37554;50.362;7.568;2023-12-14T01:46:06;12.60;66.40
51476;DHT22;37554;50.362;7.568;2023-12-14T01:48:31;12.60;66.40
51476;DHT22;37554;50.362;7.568;2023-12-14T01:50:57;12.60;66.40
51476;DHT22;37554;50.362;7.568;2023-12-14T01:53:23;12.60;66.40
51476;DHT22;37554;50.362;7.568;2023-12-14T01:55:48;12.60;66.40
51476;DHT22;37554;50.362;7.568;2023-12-14T01:58:14;12.60;66.40
51476;DHT22;37554;50.362;7.568;2023-12-14T02:00:45;12.60;66.40
51476;DHT22;37554;50.362;7.568;2023-12-14T02:03:11;12.60;66.40
51476;DHT22;37554;50.362;7.568;2023-12-14T02:05:37;12.60;66.40
51476;DHT22;37554;50.362;7.568;2023-12-14T02:08:03;12.60;66.40
51476;DHT22;37554;50.362;7.568;2023-12-14T02:10:28;12.60;66.60
51476;DHT22;37554;50.362;7.568;2023-12-14T02:12:54;12.60;66.50
51476;DHT22;37554;50.362;7.568;2023-12-14T02:15:20;12.60;66.60
51476;DHT22;37554;50.362;7.568;2023-12-14T02:17:46;12.60;66.60
51476;DHT22;37554;50.362;7.568;2023-12-14T02:20:11;12.60;66.60
51476;DHT22;37554;50.362;7.568;2023-12-14T02:22:51;12.60;66.60
51476;DHT22;37554;50.362;7.568;2023-12-14T02:25:17;12.60;66.60
51476;DHT22;37554;50.362;7.568;2023-12-14T02:27:43;12.60;66.60
51476;DHT22;37554;50.362;7.568;2023-12-14T02:30:09;12.60;66.70
51476;DHT22;37554;50.362;7.568;2023-12-14T02:32:35;12.60;66.70
51476;DHT22;37554;50.362;7.568;2023-12-14T02:35:01;12.60;66.70
51476;DHT22;37554;50.362;7.568;2023-12-14T02:37:26;12.60;66.70
51476;DHT22;37554;50.362;7.568;2023-12-14T02:39:52;12.60;66.80
51476;DHT22;37554;50.362;7.568;2023-12-14T02:42:17;12.60;66.70
51476;DHT22;37554;50.362;7.568;2023-12-14T02:44:43;12.60;66.70
51476;DHT22;37554;50.362;7.568;2023-12-14T02:47:08;12.60;66.70
51476;DHT22;37554;50.362;7.568;2023-12-14T02:49:34;12.60;66.80
51476;DHT22;37554;50.362;7.568;2023-12-14T02:51:59;12.60;66.80
51476;DHT22;37554;50.362;7.568;2023-12-14T02:54:25;12.60;66.90
51476;DHT22;37554;50.362;7.568;2023-12-14T02:56:51;12.60;66.80
51476;DHT22;37554;50.362;7.568;2023-12-14T02:59:16;12.60;66.80
51476;DHT22;37554;50.362;7.568;2023-12-14T03:01:42;12.60;66.80
51476;DHT22;37554;50.362;7.568;2023-12-14T03:04:07;12.60;66.90
51476;DHT22;37554;50.362;7.568;2023-12-14T03:06:33;12.60;66.90
51476;DHT22;37554;50.362;7.568;2023-12-14T03:08:59;12.60;66.90
51476;DHT22;37554;50.362;7.568;2023-12-14T03:11:25;12.60;66.90
51476;DHT22;37554;50.362;7.568;2023-12-14T03:13:51;12.60;67.10
51476;DHT22;37554;50.362;7.568;2023-12-14T03:16:17;12.60;67.00
51476;DHT22;37554;50.362;7.568;2023-12-14T03:18:43;12.60;67.00
51476;DHT22;37554;50.362;7.568;2023-12-14T03:21:09;12.60;67.00
51476;DHT22;37554;50.362;7.568;2023-12-14T03:23:35;12.60;67.00
51476;DHT22;37554;50.362;7.568;2023-12-14T03:26:01;12.60;67.00
51476;DHT22;37554;50.362;7.568;2023-12-14T03:28:27;12.60;67.00
51476;DHT22;37554;50.362;7.568;2023-12-14T03:30:52;12.60;67.00
51476;DHT22;37554;50.362;7.568;2023-12-14T03:33:18;12.60;67.00
51476;DHT22;37554;50.362;7.568;2023-12-14T03:35:43;12.60;67.10
51476;DHT22;37554;50.362;7.568;2023-12-14T03:38:09;12.60;67.10
51476;DHT22;37554;50.362;7.568;2023-12-14T03:40:35;12.60;67.10
51476;DHT22;37554;50.362;7.568;2023-12-14T03:43:01;12.60;67.10
51476;DHT22;37554;50.362;7.568;2023-12-14T03:45:28;12.60;67.10
51476;DHT22;37554;50.362;7.568;2023-12-14T03:47:54;12.60;67.20
51476;DHT22;37554;50.362;7.568;2023-12-14T03:50:20;12.60;67.10
51476;DHT22;37554;50.362;7.568;2023-12-14T03:52:45;12.60;67.20
51476;DHT22;37554;50.362;7.568;2023-12-14T03:55:12;12.60;67.20
51476;DHT22;37554;50.362;7.568;2023-12-14T03:57:37;12.60;67.10
51476;DHT22;37554;50.362;7.568;2023-12-14T04:00:03;12.60;67.20
51476;DHT22;37554;50.362;7.568;2023-12-14T04:02:29;12.60;67.10
51476;DHT22;37554;50.362;7.568;2023-12-14T04:04:55;12.60;67.20
51476;DHT22;37554;50.362;7.568;2023-12-14T04:07:20;12.60;67.20
51476;DHT22;37554;50.362;7.568;2023-12-14T04:09:46;12.60;67.30
51476;DHT22;37554;50.362;7.568;2023-12-14T04:12:12;12.60;67.20
51476;DHT22;37554;50.362;7.568;2023-12-14T04:14:38;12.60;67.30
51476;DHT22;37554;50.362;7.568;2023-12-14T04:17:04;12.60;67.30
51476;DHT22;37554;50.362;7.568;2023-12-14T04:19:29;12.60;67.30
51476;DHT22;37554;50.362;7.568;2023-12-14T04:21:55;12.60;67.30
51476;DHT22;37554;50.362;7.568;2023-12-14T04:24:20;12.60;67.40
51476;DHT22;37554;50.362;7.568;2023-12-14T04:26:47;12.60;67.40
51476;DHT22;37554;50.362;7.568;2023-12-14T04:29:13;12.60;67.40
51476;DHT22;37554;50.362;7.568;2023-12-14T04:31:38;12.60;67.50
51476;DHT22;37554;50.362;7.568;2023-12-14T04:34:04;12.60;67.40
51476;DHT22;37554;50.362;7.568;2023-12-14T04:36:29;12.60;67.50
51476;DHT22;37554;50.362;7.568;2023-12-14T04:38:55;12.60;67.40
51476;DHT22;37554;50.362;7.568;2023-12-14T04:41:20;12.60;67.50
51476;DHT22;37554;50.362;7.568;2023-12-14T04:43:46;12.60;67.60
51476;DHT22;37554;50.362;7.568;2023-12-14T04:46:11;12.60;67.60
51476;DHT22;37554;50.362;7.568;2023-12-14T04:48:37;12.60;67.60
51476;DHT22;37554;50.362;7.568;2023-12-14T04:51:03;12.60;67.60
51476;DHT22;37554;50.362;7.568;2023-12-14T04:53:28;12.60;67.70
51476;DHT22;37554;50.362;7.568;2023-12-14T04:55:54;12.60;67.60
51476;DHT22;37554;50.362;7.568;2023-12-14T04:58:19;12.60;67.70
51476;DHT22;37554;50.362;7.568;2023-12-14T05:00:45;12.60;67.70
51476;DHT22;37554;50.362;7.568;2023-12-14T05:03:10;12.60;67.70
51476;DHT22;37554;50.362;7.568;2023-12-14T05:05:36;12.60;67.70
51476;DHT22;37554;50.362;7.568;2023-12-14T05:08:02;12.60;67.70
51476;DHT22;37554;50.362;7.568;2023-12-14T05:10:27;12.60;67.80
51476;DHT22;37554;50.362;7.568;2023-12-14T05:12:53;12.60;67.80
51476;DHT22;37554;50.362;7.568;2023-12-14T05:15:19;12.60;67.90
51476;DHT22;37554;50.362;7.568;2023-12-14T05:17:45;12.50;67.90
51476;DHT22;37554;50.362;7.568;2023-12-14T05:20:11;12.50;67.90
51476;DHT22;37554;50.362;7.568;2023-12-14T05:22:37;12.50;68.00
51476;DHT22;37554;50.362;7.568;2023-12-14T05:25:03;12.50;68.00
51476;DHT22;37554;50.362;7.568;2023-12-14T05:27:29;12.50;68.00
51476;DHT22;37554;50.362;7.568;2023-12-14T05:29:55;12.50;68.00
51476;DHT22;37554;50.362;7.568;2023-12-14T05:32:20;12.50;68.10
51476;DHT22;37554;50.362;7.568;2023-12-14T05:34:46;12.50;68.10
51476;DHT22;37554;50.362;7.568;2023-12-14T05:37:13;12.50;68.20
51476;DHT22;37554;50.362;7.568;2023-12-14T05:39:41;12.50;68.10
51476;DHT22;37554;50.362;7.568;2023-12-14T05:42:07;12.50;68.10
51476;DHT22;37554;50.362;7.568;2023-12-14T05:44:32;12.50;68.10
51476;DHT22;37554;50.362;7.568;2023-12-14T05:46:58;12.60;68.20
51476;DHT22;37554;50.362;7.568;2023-12-14T05:49:24;12.60;68.10
51476;DHT22;37554;50.362;7.568;2023-12-14T05:51:49;12.60;68.10
51476;DHT22;37554;50.362;7.568;2023-12-14T05:54:15;12.60;68.10
51476;DHT22;37554;50.362;7.568;2023-12-14T05:56:40;12.60;68.10
51476;DHT22;37554;50.362;7.568;2023-12-14T05:59:06;12.70;68.10
51476;DHT22;37554;50.362;7.568;2023-12-14T06:01:32;12.70;68.00
51476;DHT22;37554;50.362;7.568;2023-12-14T06:03:57;12.70;68.00
51476;DHT22;37554;50.362;7.568;2023-12-14T06:06:23;12.70;68.00
51476;DHT22;37554;50.362;7.568;2023-12-14T06:08:49;12.70;68.10
51476;DHT22;37554;50.362;7.568;2023-12-14T06:11:14;12.70;68.10
51476;DHT22;37554;50.362;7.568;2023-12-14T06:13:40;12.70;68.00
51476;DHT22;37554;50.362;7.568;2023-12-14T06:16:06;12.70;68.10
51476;DHT22;37554;50.362;7.568;2023-12-14T06:18:38;12.70;68.10
51476;DHT22;37554;50.362;7.568;2023-12-14T06:21:05;12.60;68.20
51476;DHT22;37554;50.362;7.568;2023-12-14T06:23:31;12.70;68.20
51476;DHT22;37554;50.362;7.568;2023-12-14T06:25:57;12.70;68.20
51476;DHT22;37554;50.362;7.568;2023-12-14T06:28:23;12.70;68.30
51476;DHT22;37554;50.362;7.568;2023-12-14T06:30:49;12.60;68.20
51476;DHT22;37554;50.362;7.568;2023-12-14T06:33:14;12.60;68.30
51476;DHT22;37554;50.362;7.568;2023-12-14T06:35:40;12.60;68.30
51476;DHT22;37554;50.362;7.568;2023-12-14T06:38:06;12.60;68.30
51476;DHT22;37554;50.362;7.568;2023-12-14T06:40:31;12.60;68.40
51476;DHT22;37554;50.362;7.568;2023-12-14T06:42:57;12.60;68.40
51476;DHT22;37554;50.362;7.568;2023-12-14T06:45:23;12.60;68.40
51476;DHT22;37554;50.362;7.568;2023-12-14T06:47:49;12.60;68.10
51476;DHT22;37554;50.362;7.568;2023-12-14T06:50:15;12.40;67.90
51476;DHT22;37554;50.362;7.568;2023-12-14T06:52:40;12.20;68.40
51476;DHT22;37554;50.362;7.568;2023-12-14T06:55:06;12.00;68.80
51476;DHT22;37554;50.362;7.568;2023-12-14T06:57:32;12.10;69.30
51476;DHT22;37554;50.362;7.568;2023-12-14T06:59:58;12.30;69.20
51476;DHT22;37554;50.362;7.568;2023-12-14T07:02:23;12.50;68.70
51476;DHT22;37554;50.362;7.568;2023-12-14T07:04:49;12.70;68.40
51476;DHT22;37554;50.362;7.568;2023-12-14T07:07:15;12.70;68.00
51476;DHT22;37554;50.362;7.568;2023-12-14T07:09:41;12.90;67.80
51476;DHT22;37554;50.362;7.568;2023-12-14T07:12:06;12.90;67.60
51476;DHT22;37554;50.362;7.568;2023-12-14T07:14:33;13.00;67.40
51476;DHT22;37554;50.362;7.568;2023-12-14T07:16:58;13.10;67.40
51476;DHT22;37554;50.362;7.568;2023-12-14T07:19:24;13.10;67.20
51476;DHT22;37554;50.362;7.568;2023-12-14T07:21:50;13.20;67.20
51476;DHT22;37554;50.362;7.568;2023-12-14T07:24:15;13.20;67.30
51476;DHT22;37554;50.362;7.568;2023-12-14T07:26:41;13.20;68.00
51476;DHT22;37554;50.362;7.568;2023-12-14T07:29:06;13.20;67.40
51476;DHT22;37554;50.362;7.568;2023-12-14T07:31:32;13.20;67.40
51476;DHT22;37554;50.362;7.568;2023-12-14T07:33:59;13.20;67.50
51476;DHT22;37554;50.362;7.568;2023-12-14T07:36:24;13.20;67.50
51476;DHT22;37554;50.362;7.568;2023-12-14T07:38:50;13.20;67.50
51476;DHT22;37554;50.362;7.568;2023-12-14T07:41:15;13.20;67.60
51476;DHT22;37554;50.362;7.568;2023-12-14T07:43:41;13.20;67.70
51476;DHT22;37554;50.362;7.568;2023-12-14T07:46:08;13.10;67.70
51476;DHT22;37554;50.362;7.568;2023-12-14T07:48:34;13.20;67.80
51476;DHT22;37554;50.362;7.568;2023-12-14T07:50:59;13.10;67.90
51476;DHT22;37554;50.362;7.568;2023-12-14T07:53:25;13.10;67.90
51476;DHT22;37554;50.362;7.568;2023-12-14T07:55:50;13.10;68.10
51476;DHT22;37554;50.362;7.568;2023-12-14T07:58:16;13.10;68.20
51476;DHT22;37554;50.362;7.568;2023-12-14T08:00:41;13.10;68.20
51476;DHT22;37554;50.362;7.568;2023-12-14T08:03:07;13.10;68.40
51476;DHT22;37554;50.362;7.568;2023-12-14T08:05:32;13.10;68.40
51476;DHT22;37554;50.362;7.568;2023-12-14T08:07:58;13.00;68.50
51476;DHT22;37554;50.362;7.568;2023-12-14T08:10:24;13.00;68.50
51476;DHT22;37554;50.362;7.568;2023-12-14T08:12:50;13.00;68.60
51476;DHT22;37554;50.362;7.568;2023-12-14T08:15:17;13.00;68.70
51476;DHT22;37554;50.362;7.568;2023-12-14T08:17:43;12.90;68.70
51476;DHT22;37554;50.362;7.568;2023-12-14T08:20:09;13.00;68.90
51476;DHT22;37554;50.362;7.568;2023-12-14T08:22:36;13.00;69.00
51476;DHT22;37554;50.362;7.568;2023-12-14T08:25:02;13.00;69.10
51476;DHT22;37554;50.362;7.568;2023-12-14T08:27:29;12.90;69.10
51476;DHT22;37554;50.362;7.568;2023-12-14T08:29:54;12.90;69.20
51476;DHT22;37554;50.362;7.568;2023-12-14T08:32:20;12.90;69.20
51476;DHT22;37554;50.362;7.568;2023-12-14T08:34:45;12.90;69.30
51476;DHT22;37554;50.362;7.568;2023-12-14T08:37:11;12.90;69.30
51476;DHT22;37554;50.362;7.568;2023-12-14T08:39:36;13.00;69.40
51476;DHT22;37554;50.362;7.568;2023-12-14T08:42:02;13.00;69.50
51476;DHT22;37554;50.362;7.568;2023-12-14T08:44:28;12.90;69.40
51476;DHT22;37554;50.362;7.568;2023-12-14T08:46:53;12.90;69.40
51476;DHT22;37554;50.362;7.568;2023-12-14T08:49:19;13.00;69.50
51476;DHT22;37554;50.362;7.568;2023-12-14T08:51:45;13.00;69.60
51476;DHT22;37554;50.362;7.568;2023-12-14T08:54:11;13.00;69.60
51476;DHT22;37554;50.362;7.568;2023-12-14T08:56:36;13.00;69.60
51476;DHT22;37554;50.362;7.568;2023-12-14T08:59:02;13.00;69.60
51476;DHT22;37554;50.362;7.568;2023-12-14T09:01:29;13.00;69.70
51476;DHT22;37554;50.362;7.568;2023-12-14T09:03:54;13.00;69.70
51476;DHT22;37554;50.362;7.568;2023-12-14T09:06:20;13.00;69.70
51476;DHT22;37554;50.362;7.568;2023-12-14T09:08:46;13.00;69.70
51476;DHT22;37554;50.362;7.568;2023-12-14T09:11:12;13.00;69.70
51476;DHT22;37554;50.362;7.568;2023-12-14T09:13:37;13.00;69.70
51476;DHT22;37554;50.362;7.568;2023-12-14T09:16:03;13.00;69.70
51476;DHT22;37554;50.362;7.568;2023-12-14T09:18:29;13.00;69.70
51476;DHT22;37554;50.362;7.568;2023-12-14T09:20:55;13.00;69.70
51476;DHT22;37554;50.362;7.568;2023-12-14T09:23:21;13.00;69.70
51476;DHT22;37554;50.362;7.568;2023-12-14T09:25:47;13.00;69.80
51476;DHT22;37554;50.362;7.568;2023-12-14T09:28:12;13.00;69.80
51476;DHT22;37554;50.362;7.568;2023-12-14T09:30:38;13.00;69.90
51476;DHT22;37554;50.362;7.568;2023-12-14T09:33:04;12.90;69.90
51476;DHT22;37554;50.362;7.568;2023-12-14T09:35:29;12.90;69.90
51476;DHT22;37554;50.362;7.568;2023-12-14T09:37:55;12.90;69.90
51476;DHT22;37554;50.362;7.568;2023-12-14T09:40:22;12.90;70.00
51476;DHT22;37554;50.362;7.568;2023-12-14T09:42:48;12.90;70.00
51476;DHT22;37554;50.362;7.568;2023-12-14T09:45:16;12.90;70.70
51476;DHT22;37554;50.362;7.568;2023-12-14T09:47:42;12.90;70.00
51476;DHT22;37554;50.362;7.568;2023-12-14T09:50:09;12.90;70.00
51476;DHT22;37554;50.362;7.568;2023-12-14T09:52:35;12.90;70.00
51476;DHT22;37554;50.362;7.568;2023-12-14T09:55:01;12.90;70.00
51476;DHT22;37554;50.362;7.568;2023-12-14T09:57:29;12.90;69.90
51476;DHT22;37554;50.362;7.568;2023-12-14T09:59:55;12.90;69.90
51476;DHT22;37554;50.362;7.568;2023-12-14T10:02:25;12.90;69.80
51476;DHT22;37554;50.362;7.568;2023-12-14T10:04:52;12.90;69.80
51476;DHT22;37554;50.362;7.568;2023-12-14T10:07:18;13.00;69.80
51476;DHT22;37554;50.362;7.568;2023-12-14T10:09:44;13.00;69.80
51476;DHT22;37554;50.362;7.568;2023-12-14T10:12:10;13.10;69.80
51476;DHT22;37554;50.362;7.568;2023-12-14T10:14:36;13.00;69.70
51476;DHT22;37554;50.362;7.568;2023-12-14T10:17:20;13.10;69.70
51476;DHT22;37554;50.362;7.568;2023-12-14T10:19:47;13.10;69.80
51476;DHT22;37554;50.362;7.568;2023-12-14T10:22:17;13.10;69.60
51476;DHT22;37554;50.362;7.568;2023-12-14T10:24:44;13.20;69.70
51476;DHT22;37554;50.362;7.568;2023-12-14T10:27:10;13.20;69.70
51476;DHT22;37554;50.362;7.568;2023-12-14T10:29:39;13.20;69.70
51476;DHT22;37554;50.362;7.568;2023-12-14T10:32:06;13.30;69.70
51476;DHT22;37554;50.362;7.568;2023-12-14T10:34:35;13.30;69.80
51476;DHT22;37554;50.362;7.568;2023-12-14T10:37:09;13.30;69.80
51476;DHT22;37554;50.362;7.568;2023-12-14T10:39:41;13.30;69.90
51476;DHT22;37554;50.362;7.568;2023-12-14T10:42:09;13.30;69.90
51476;DHT22;37554;50.362;7.568;2023-12-14T10:44:36;13.30;70.00
51476;DHT22;37554;50.362;7.568;2023-12-14T10:47:03;13.40;70.00
51476;DHT22;37554;50.362;7.568;2023-12-14T10:49:30;13.30;70.00
51476;DHT22;37554;50.362;7.568;2023-12-14T10:51:58;13.30;70.10
51476;DHT22;37554;50.362;7.568;2023-12-14T10:54:25;13.40;70.10
51476;DHT22;37554;50.362;7.568;2023-12-14T10:56:55;13.40;70.10
51476;DHT22;37554;50.362;7.568;2023-12-14T10:59:23;13.40;70.00
51476;DHT22;37554;50.362;7.568;2023-12-14T11:01:53;13.50;70.10
51476;DHT22;37554;50.362;7.568;2023-12-14T11:04:21;13.50;70.00
51476;DHT22;37554;50.362;7.568;2023-12-14T11:06:47;13.50;70.00
51476;DHT22;37554;50.362;7.568;2023-12-14T11:09:17;13.50;70.10
51476;DHT22;37554;50.362;7.568;2023-12-14T11:14:15;13.50;70.20
51476;DHT22;37554;50.362;7.568;2023-12-14T11:16:44;13.40;70.10
51476;DHT22;37554;50.362;7.568;2023-12-14T11:24:22;13.40;70.10
51476;DHT22;37554;50.362;7.568;2023-12-14T11:26:51;13.40;70.10
51476;DHT22;37554;50.362;7.568;2023-12-14T11:29:19;13.40;70.10
51476;DHT22;37554;50.362;7.568;2023-12-14T11:31:47;13.30;70.00
51476;DHT22;37554;50.362;7.568;2023-12-14T11:34:15;13.40;70.00
51476;DHT22;37554;50.362;7.568;2023-12-14T11:36:42;13.40;70.00
51476;DHT22;37554;50.362;7.568;2023-12-14T11:39:09;13.40;69.90
51476;DHT22;37554;50.362;7.568;2023-12-14T11:41:35;13.40;69.80
51476;DHT22;37554;50.362;7.568;2023-12-14T11:44:01;13.40;69.60
51476;DHT22;37554;50.362;7.568;2023-12-14T11:46:28;13.40;69.50
51476;DHT22;37554;50.362;7.568;2023-12-14T11:48:56;13.40;70.10
51476;DHT22;37554;50.362;7.568;2023-12-14T11:51:22;13.40;69.50
51476;DHT22;37554;50.362;7.568;2023-12-14T11:53:48;13.40;69.40
51476;DHT22;37554;50.362;7.568;2023-12-14T11:56:16;13.40;69.40
51476;DHT22;37554;50.362;7.568;2023-12-14T11:58:44;13.40;69.40
51476;DHT22;37554;50.362;7.568;2023-12-14T12:01:17;13.30;69.30
51476;DHT22;37554;50.362;7.568;2023-12-14T12:03:44;13.30;69.30
51476;DHT22;37554;50.362;7.568;2023-12-14T12:06:21;13.40;69.30
51476;DHT22;37554;50.362;7.568;2023-12-14T12:08:47;13.40;69.40
51476;DHT22;37554;50.362;7.568;2023-12-14T12:11:18;13.40;69.20
51476;DHT22;37554;50.362;7.568;2023-12-14T12:13:44;13.50;69.80
51476;DHT22;37554;50.362;7.568;2023-12-14T12:16:09;13.50;69.10
51476;DHT22;37554;50.362;7.568;2023-12-14T12:18:35;13.40;69.00
51476;DHT22;37554;50.362;7.568;2023-12-14T12:21:00;13.40;69.00
51476;DHT22;37554;50.362;7.568;2023-12-14T12:23:29;13.50;69.00
51476;DHT22;37554;50.362;7.568;2023-12-14T12:25:55;13.40;68.80
51476;DHT22;37554;50.362;7.568;2023-12-14T12:28:21;13.40;68.70
51476;DHT22;37554;50.362;7.568;2023-12-14T12:30:47;13.50;68.60
51476;DHT22;37554;50.362;7.568;2023-12-14T12:33:13;13.50;68.50
51476;DHT22;37554;50.362;7.568;2023-12-14T12:35:38;13.40;68.40
51476;DHT22;37554;50.362;7.568;2023-12-14T12:38:04;13.40;68.30
51476;DHT22;37554;50.362;7.568;2023-12-14T12:40:29;13.50;68.20
51476;DHT22;37554;50.362;7.568;2023-12-14T12:42:56;13.50;68.00
51476;DHT22;37554;50.362;7.568;2023-12-14T12:45:22;13.50;67.90
51476;DHT22;37554;50.362;7.568;2023-12-14T12:47:51;13.50;67.90
51476;DHT22;37554;50.362;7.568;2023-12-14T12:50:16;13.50;67.90
51476;DHT22;37554;50.362;7.568;2023-12-14T12:52:42;13.50;67.80
51476;DHT22;37554;50.362;7.568;2023-12-14T12:55:08;13.50;67.80
51476;DHT22;37554;50.362;7.568;2023-12-14T12:57:35;13.50;67.70
51476;DHT22;37554;50.362;7.568;2023-12-14T13:00:01;13.60;67.80
51476;DHT22;37554;50.362;7.568;2023-12-14T13:02:26;13.60;67.70
51476;DHT22;37554;50.362;7.568;2023-12-14T13:04:52;13.60;67.70
51476;DHT22;37554;50.362;7.568;2023-12-14T13:07:19;13.60;67.60
51476;DHT22;37554;50.362;7.568;2023-12-14T13:09:44;13.60;67.60
51476;DHT22;37554;50.362;7.568;2023-12-14T13:12:10;13.60;67.50
51476;DHT22;37554;50.362;7.568;2023-12-14T13:14:36;13.60;67.50
51476;DHT22;37554;50.362;7.568;2023-12-14T13:17:02;13.60;67.50
51476;DHT22;37554;50.362;7.568;2023-12-14T13:19:27;13.60;67.40
51476;DHT22;37554;50.362;7.568;2023-12-14T13:21:54;13.60;67.40
51476;DHT22;37554;50.362;7.568;2023-12-14T13:24:22;13.60;67.40
51476;DHT22;37554;50.362;7.568;2023-12-14T13:26:48;13.50;67.30
51476;DHT22;37554;50.362;7.568;2023-12-14T13:29:14;13.50;67.30
51476;DHT22;37554;50.362;7.568;2023-12-14T13:31:39;13.60;67.30
51476;DHT22;37554;50.362;7.568;2023-12-14T13:34:05;13.50;67.30
51476;DHT22;37554;50.362;7.568;2023-12-14T13:36:30;13.50;67.20
51476;DHT22;37554;50.362;7.568;2023-12-14T13:38:56;13.50;67.20
51476;DHT22;37554;50.362;7.568;2023-12-14T13:41:22;13.50;67.20
51476;DHT22;37554;50.362;7.568;2023-12-14T13:43:48;13.50;67.20
51476;DHT22;37554;50.362;7.568;2023-12-14T13:46:14;13.50;67.20
51476;DHT22;37554;50.362;7.568;2023-12-14T13:48:40;13.50;67.20
51476;DHT22;37554;50.362;7.568;2023-12-14T13:51:06;13.50;67.30
51476;DHT22;37554;50.362;7.568;2023-12-14T13:53:33;13.50;67.20
51476;DHT22;37554;50.362;7.568;2023-12-14T13:55:59;13.50;67.20
51476;DHT22;37554;50.362;7.568;2023-12-14T13:58:25;13.40;67.20
51476;DHT22;37554;50.362;7.568;2023-12-14T14:00:50;13.40;67.10
51476;DHT22;37554;50.362;7.568;2023-12-14T14:03:16;13.40;67.10
51476;DHT22;37554;50.362;7.568;2023-12-14T14:05:42;13.40;67.20
51476;DHT22;37554;50.362;7.568;2023-12-14T14:08:09;13.30;65.90
51476;DHT22;37554;50.362;7.568;2023-12-14T14:10:35;13.10;65.10
51476;DHT22;37554;50.362;7.568;2023-12-14T14:13:00;12.90;65.00
51476;DHT22;37554;50.362;7.568;2023-12-14T14:15:26;12.70;65.00
51476;DHT22;37554;50.362;7.568;2023-12-14T14:17:51;12.60;65.30
51476;DHT22;37554;50.362;7.568;2023-12-14T14:20:19;12.70;65.50
51476;DHT22;37554;50.362;7.568;2023-12-14T14:22:45;12.90;65.50
51476;DHT22;37554;50.362;7.568;2023-12-14T14:25:11;13.00;65.30
51476;DHT22;37554;50.362;7.568;2023-12-14T14:27:36;13.10;65.10
51476;DHT22;37554;50.362;7.568;2023-12-14T14:30:02;13.20;65.00
51476;DHT22;37554;50.362;7.568;2023-12-14T14:32:28;13.30;64.80
51476;DHT22;37554;50.362;7.568;2023-12-14T14:34:57;13.40;64.80
51476;DHT22;37554;50.362;7.568;2023-12-14T14:37:24;13.40;64.60
51476;DHT22;37554;50.362;7.568;2023-12-14T14:39:49;13.50;64.70
51476;DHT22;37554;50.362;7.568;2023-12-14T14:42:15;13.50;64.60
51476;DHT22;37554;50.362;7.568;2023-12-14T14:44:41;13.50;64.60
51476;DHT22;37554;50.362;7.568;2023-12-14T14:47:07;13.50;64.60
51476;DHT22;37554;50.362;7.568;2023-12-14T14:49:32;13.60;64.50
51476;DHT22;37554;50.362;7.568;2023-12-14T14:51:58;13.50;64.30
51476;DHT22;37554;50.362;7.568;2023-12-14T14:54:24;13.50;64.30
51476;DHT22;37554;50.362;7.568;2023-12-14T14:56:49;13.50;64.30
51476;DHT22;37554;50.362;7.568;2023-12-14T14:59:15;13.50;64.30
51476;DHT22;37554;50.362;7.568;2023-12-14T15:01:41;13.50;64.40
51476;DHT22;37554;50.362;7.568;2023-12-14T15:04:07;13.50;64.40
51476;DHT22;37554;50.362;7.568;2023-12-14T15:06:33;13.40;64.50
51476;DHT22;37554;50.362;7.568;2023-12-14T15:08:59;13.40;64.50
51476;DHT22;37554;50.362;7.568;2023-12-14T15:11:25;13.50;64.70
51476;DHT22;37554;50.362;7.568;2023-12-14T15:13:50;13.40;64.80
51476;DHT22;37554;50.362;7.568;2023-12-14T15:16:17;13.50;64.90
51476;DHT22;37554;50.362;7.568;2023-12-14T15:18:44;13.40;65.00
51476;DHT22;37554;50.362;7.568;2023-12-14T15:21:11;13.40;65.10
51476;DHT22;37554;50.362;7.568;2023-12-14T15:23:37;13.40;65.20
51476;DHT22;37554;50.362;7.568;2023-12-14T15:26:03;13.30;65.20
51476;DHT22;37554;50.362;7.568;2023-12-14T15:28:30;13.30;65.30
51476;DHT22;37554;50.362;7.568;2023-12-14T15:30:56;13.30;65.40